createdAt,value
2023-05-10T00:02:58.077Z,64.88
2023-05-10T00:06:01.036Z,64.53
2023-05-10T00:09:04.266Z,64.80
2023-05-10T00:12:07.235Z,65.34
2023-05-10T00:15:10.619Z,65.11
2023-05-10T00:18:13.396Z,64.11
2023-05-10T00:21:16.938Z,65.19
2023-05-10T00:24:19.901Z,65.99
2023-05-10T00:27:22.494Z,66.03
2023-05-10T00:30:25.590Z,66.90
2023-05-10T00:33:28.276Z,66.47
2023-05-10T00:36:32.494Z,67.55
2023-05-10T00:39:34.927Z,66.41
2023-05-10T00:42:38.457Z,66.07
2023-05-10T00:45:43.029Z,65.61
2023-05-10T00:48:46.506Z,66.05
2023-05-10T00:51:49.078Z,66.01
2023-05-10T00:54:53.679Z,66.78
2023-05-10T00:57:56.161Z,66.77
2023-05-10T01:01:00.078Z,66.79
2023-05-10T01:04:04.299Z,65.83
2023-05-10T01:07:07.184Z,66.26
2023-05-10T01:10:10.286Z,67.75
2023-05-10T01:13:13.974Z,67.87
2023-05-10T01:16:17.833Z,67.44
2023-05-10T01:19:24.269Z,68.06
2023-05-10T01:22:54.456Z,68.14
2023-05-10T01:26:25.592Z,67.24
2023-05-10T01:30:15.573Z,67.78
2023-05-10T01:33:21.666Z,69.05
2023-05-10T01:36:28.757Z,68.47
2023-05-10T01:39:42.219Z,67.91
2023-05-10T01:42:51.860Z,68.05
2023-05-10T01:46:19.440Z,68.79
2023-05-10T01:49:27.757Z,67.56
2023-05-10T01:52:37.704Z,68.37
2023-05-10T01:55:49.297Z,68.96
2023-05-10T01:58:53.349Z,68.58
2023-05-10T02:01:59.331Z,68.59
2023-05-10T02:05:02.256Z,67.57
2023-05-10T02:08:07.577Z,68.82
2023-05-10T02:11:12.467Z,69.13
2023-05-10T02:14:16.600Z,69.27
2023-05-10T02:17:19.952Z,70.33
2023-05-10T02:20:23.936Z,69.10
2023-05-10T02:23:27.622Z,69.55
2023-05-10T02:26:31.093Z,69.97
2023-05-10T02:29:34.754Z,70.66
2023-05-10T02:32:38.074Z,70.98
2023-05-10T02:35:41.026Z,70.86
2023-05-10T02:38:46.150Z,71.29
2023-05-10T02:41:50.403Z,71.61
2023-05-10T02:44:58.060Z,71.90
2023-05-10T02:48:01.592Z,72.06
2023-05-10T02:51:09.278Z,72.25
2023-05-10T02:54:14.810Z,72.03
2023-05-10T02:57:20.508Z,72.53
2023-05-10T03:00:23.302Z,72.23
2023-05-10T03:03:25.665Z,73.88
2023-05-10T03:06:29.912Z,74.14
2023-05-10T03:09:33.591Z,73.79
2023-05-10T03:13:14.447Z,74.44
2023-05-10T03:16:23.920Z,73.57
2023-05-10T03:20:00.182Z,75.11
2023-05-10T03:23:31.146Z,74.54
2023-05-10T03:26:34.939Z,73.96
2023-05-10T03:29:47.611Z,75.25
2023-05-10T03:32:50.947Z,74.20
2023-05-10T03:35:54.111Z,73.27
2023-05-10T03:38:56.980Z,73.86
2023-05-10T03:42:00.579Z,73.48
2023-05-10T03:45:04.101Z,73.27
2023-05-10T03:48:07.062Z,73.57
2023-05-10T03:51:09.907Z,72.98
2023-05-10T03:54:12.299Z,74.00
2023-05-10T03:57:14.972Z,73.33
2023-05-10T04:00:17.913Z,76.65
2023-05-10T04:03:27.117Z,73.75
2023-05-10T04:06:29.635Z,73.61
2023-05-10T04:09:32.683Z,74.53
2023-05-10T04:12:35.197Z,72.24
2023-05-10T04:15:37.972Z,74.45
2023-05-10T04:18:41.351Z,73.14
2023-05-10T04:21:44.052Z,71.41
2023-05-10T04:24:46.373Z,74.14
2023-05-10T04:27:49.019Z,71.30
2023-05-10T04:30:51.469Z,72.72
2023-05-10T04:33:54.270Z,69.89
2023-05-10T04:36:59.631Z,72.14
2023-05-10T04:40:02.410Z,70.50
2023-05-10T04:43:04.851Z,71.15
2023-05-10T04:46:08.822Z,69.01
2023-05-10T04:49:11.524Z,66.96
2023-05-10T04:52:14.844Z,68.34
2023-05-10T04:55:17.348Z,68.87
2023-05-10T04:58:20.171Z,67.64
2023-05-10T05:01:22.653Z,67.51
2023-05-10T05:04:25.435Z,66.07
2023-05-10T05:07:27.811Z,63.48
2023-05-10T05:10:31.135Z,65.57
2023-05-10T05:13:33.611Z,65.42
2023-05-10T05:16:36.484Z,65.54
2023-05-10T05:19:39.015Z,63.53
2023-05-10T05:22:41.880Z,67.00
2023-05-10T05:25:44.437Z,61.91
2023-05-10T05:28:47.298Z,61.67
2023-05-10T05:31:49.805Z,59.50
2023-05-10T05:34:52.866Z,60.41
2023-05-10T05:37:55.292Z,59.06
2023-05-10T05:40:58.119Z,61.00
2023-05-10T05:44:00.887Z,57.33
2023-05-10T05:47:03.661Z,57.94
2023-05-10T05:50:06.839Z,55.22
2023-05-10T05:53:10.094Z,53.96
2023-05-10T05:56:12.445Z,53.24
2023-05-10T05:59:15.943Z,50.89
2023-05-10T06:02:18.471Z,49.36
2023-05-10T06:05:22.116Z,51.65
2023-05-10T06:08:24.511Z,48.59
2023-05-10T06:11:27.418Z,46.46
2023-05-10T06:14:29.830Z,44.71
2023-05-10T06:17:32.646Z,44.02
2023-05-10T06:20:35.794Z,43.49
2023-05-10T06:23:38.517Z,45.01
2023-05-10T06:26:40.905Z,42.53
2023-05-10T06:29:43.678Z,40.48
2023-05-10T06:32:46.634Z,40.69
2023-05-10T06:35:49.898Z,39.48
2023-05-10T06:38:52.484Z,39.24
2023-05-10T06:41:55.706Z,38.66
2023-05-10T06:44:58.177Z,38.35
2023-05-10T06:48:00.990Z,39.77
2023-05-10T06:51:03.345Z,36.72
2023-05-10T06:54:06.249Z,36.10
2023-05-10T06:57:16.171Z,35.97
2023-05-10T07:00:22.788Z,39.02
2023-05-10T07:03:25.280Z,36.17
2023-05-10T07:06:33.514Z,35.58
2023-05-10T07:09:36.588Z,34.98
2023-05-10T07:12:39.740Z,34.93
2023-05-10T07:15:42.499Z,34.43
2023-05-10T07:18:45.296Z,33.91
2023-05-10T07:21:47.827Z,33.16
2023-05-10T07:24:50.670Z,32.09
2023-05-10T07:27:53.181Z,31.16
2023-05-10T07:30:56.062Z,31.60
2023-05-10T07:33:58.484Z,31.54
2023-05-10T07:37:01.828Z,30.93
2023-05-10T07:40:04.916Z,29.82
2023-05-10T07:43:07.730Z,33.25
2023-05-10T07:46:12.205Z,31.76
2023-05-10T07:49:15.194Z,29.17
2023-05-10T07:52:17.618Z,29.97
2023-05-10T07:55:22.403Z,28.69
2023-05-10T07:58:25.301Z,29.38
2023-05-10T08:01:31.002Z,28.00
2023-05-10T08:04:36.122Z,28.82
2023-05-10T08:07:39.220Z,29.14
2023-05-10T08:10:41.733Z,29.42
2023-05-10T08:13:45.630Z,29.27
2023-05-10T08:16:48.275Z,28.83
2023-05-10T08:19:51.163Z,28.52
2023-05-10T08:22:53.672Z,29.13
2023-05-10T08:25:56.411Z,29.95
2023-05-10T08:28:58.870Z,29.22
2023-05-10T08:32:02.148Z,33.38
2023-05-10T08:35:04.895Z,26.79
2023-05-10T08:38:07.628Z,27.28
2023-05-10T08:41:11.004Z,27.80
2023-05-10T08:44:14.280Z,27.51
2023-05-10T08:47:18.188Z,26.72
2023-05-10T08:50:23.009Z,25.69
2023-05-10T08:53:27.853Z,26.24
2023-05-10T08:56:30.628Z,25.54
2023-05-10T08:59:34.406Z,25.03
2023-05-10T09:02:38.662Z,26.94
2023-05-10T09:05:41.112Z,25.30
2023-05-10T09:08:44.158Z,25.68
2023-05-10T09:11:46.672Z,27.69
2023-05-10T09:14:50.188Z,25.45
2023-05-10T09:17:52.638Z,24.81
2023-05-10T09:20:56.156Z,26.14
2023-05-10T09:23:58.608Z,26.21
2023-05-10T09:27:03.204Z,27.13
2023-05-10T09:30:06.547Z,28.92
2023-05-10T09:33:09.262Z,26.75
2023-05-10T09:36:12.198Z,27.29
2023-05-10T09:39:14.984Z,25.60
2023-05-10T09:42:19.802Z,27.37
2023-05-10T09:45:24.183Z,27.57
2023-05-10T09:48:26.700Z,27.73
2023-05-10T09:51:29.408Z,25.05
2023-05-10T09:54:33.003Z,25.36
2023-05-10T09:57:35.714Z,26.67
2023-05-10T10:00:39.767Z,25.61
2023-05-10T10:03:43.707Z,24.76
2023-05-10T10:06:46.308Z,25.74
2023-05-10T10:09:49.056Z,25.19
2023-05-10T10:12:51.459Z,25.35
2023-05-10T10:15:55.939Z,25.76
2023-05-10T10:18:58.872Z,26.40
2023-05-10T10:22:01.704Z,25.94
2023-05-10T10:25:05.791Z,24.74
2023-05-10T10:28:48.980Z,25.74
2023-05-10T10:32:00.907Z,25.66
2023-05-10T10:35:04.020Z,26.88
2023-05-10T10:38:09.619Z,25.03
2023-05-10T10:41:27.919Z,26.13
2023-05-10T10:44:36.219Z,24.65
2023-05-10T10:47:38.935Z,24.62
2023-05-10T10:50:46.581Z,25.82
2023-05-10T10:53:49.593Z,23.21
2023-05-10T10:57:15.661Z,23.94
2023-05-10T11:00:34.393Z,24.76
2023-05-10T11:03:37.286Z,24.65
2023-05-10T11:06:41.482Z,25.09
2023-05-10T11:09:44.234Z,24.31
2023-05-10T11:12:55.382Z,27.17
2023-05-10T11:16:00.271Z,24.62
2023-05-10T11:19:13.366Z,26.00
2023-05-10T11:22:16.304Z,25.38
2023-05-10T11:25:19.367Z,24.54
2023-05-10T11:28:22.147Z,25.34
2023-05-10T11:31:25.122Z,24.42
2023-05-10T11:34:31.552Z,25.75
2023-05-10T11:37:35.499Z,24.04
2023-05-10T11:40:39.119Z,25.19
2023-05-10T11:43:42.210Z,25.83
2023-05-10T11:46:45.096Z,23.42
2023-05-10T11:49:48.913Z,26.27
2023-05-10T11:52:56.155Z,25.44
2023-05-10T11:56:08.877Z,24.78
2023-05-10T11:59:11.633Z,25.75
2023-05-10T12:02:17.146Z,24.14
2023-05-10T12:05:20.117Z,24.87
2023-05-10T12:08:25.439Z,24.80
2023-05-10T12:11:29.665Z,24.71
2023-05-10T12:14:36.356Z,25.53
2023-05-10T12:17:43.414Z,25.87
2023-05-10T12:20:46.076Z,26.43
2023-05-10T12:23:51.852Z,26.48
2023-05-10T12:30:14.790Z,24.98
2023-05-10T12:33:19.275Z,25.86
2023-05-10T12:36:24.882Z,25.15
2023-05-10T12:39:27.277Z,25.03
2023-05-10T12:42:30.436Z,25.65
2023-05-10T12:45:32.919Z,25.40
2023-05-10T12:48:37.206Z,24.88
2023-05-10T12:51:39.584Z,24.51
2023-05-10T12:54:42.511Z,23.98
2023-05-10T12:57:45.073Z,25.07
2023-05-10T13:00:48.152Z,24.84
2023-05-10T13:03:50.637Z,24.40
2023-05-10T13:06:53.480Z,25.46
2023-05-10T13:09:56.012Z,24.67
2023-05-10T13:13:01.763Z,25.64
2023-05-10T13:16:04.366Z,25.51
2023-05-10T13:19:08.057Z,25.05
2023-05-10T13:22:10.684Z,26.52
2023-05-10T13:25:13.743Z,25.80
2023-05-10T13:28:16.437Z,25.45
2023-05-10T13:31:19.235Z,25.33
2023-05-10T13:34:21.833Z,25.32
2023-05-10T13:37:24.549Z,25.97
2023-05-10T13:40:26.851Z,26.18
2023-05-10T13:43:30.660Z,25.07
2023-05-10T13:46:33.164Z,26.93
2023-05-10T13:49:37.445Z,26.96
2023-05-10T13:52:39.853Z,27.49
2023-05-10T13:55:42.696Z,27.66
2023-05-10T13:58:45.521Z,25.75
2023-05-10T14:01:48.574Z,26.77
2023-05-10T14:04:52.649Z,27.00
2023-05-10T14:07:55.689Z,26.56
2023-05-10T14:10:59.046Z,28.48
2023-05-10T14:14:01.947Z,27.39
2023-05-10T14:17:04.246Z,27.00
2023-05-10T14:20:07.778Z,26.33
2023-05-10T14:23:11.803Z,27.02
2023-05-10T14:26:14.935Z,27.23
2023-05-10T14:29:17.327Z,26.91
2023-05-10T14:32:20.130Z,28.30
2023-05-10T14:35:22.845Z,26.79
2023-05-10T14:38:25.861Z,29.01
2023-05-10T14:41:28.221Z,26.52
2023-05-10T14:44:30.880Z,28.58
2023-05-10T14:47:33.320Z,26.56
2023-05-10T14:50:37.499Z,27.45
2023-05-10T14:53:40.063Z,27.20
2023-05-10T14:56:42.950Z,27.67
2023-05-10T14:59:45.396Z,27.47
2023-05-10T15:02:49.483Z,26.56
2023-05-10T15:05:53.150Z,27.63
2023-05-10T15:08:55.795Z,26.92
2023-05-10T15:11:58.208Z,26.55
2023-05-10T15:15:00.839Z,26.13
2023-05-10T15:18:03.303Z,26.93
2023-05-10T15:21:07.157Z,27.80
2023-05-10T15:24:10.834Z,28.26
2023-05-10T15:27:13.734Z,26.88
2023-05-10T15:30:16.376Z,26.50
2023-05-10T15:33:19.357Z,27.57
2023-05-10T15:36:22.086Z,27.93
2023-05-10T15:39:24.896Z,29.26
2023-05-10T15:42:27.313Z,27.71
2023-05-10T15:45:30.254Z,27.12
2023-05-10T15:48:32.647Z,28.73
2023-05-10T15:51:36.647Z,28.28
2023-05-10T15:54:39.692Z,29.91
2023-05-10T15:57:43.945Z,28.76
2023-05-10T16:00:46.595Z,28.32
2023-05-10T16:03:49.463Z,27.60
2023-05-10T16:06:52.149Z,27.32
2023-05-10T16:09:55.360Z,28.84
2023-05-10T16:12:57.864Z,28.37
2023-05-10T16:16:01.528Z,28.02
2023-05-10T16:19:04.563Z,28.29
2023-05-10T16:22:07.858Z,28.51
2023-05-10T16:25:12.677Z,27.31
2023-05-10T16:28:16.153Z,27.88
2023-05-10T16:31:19.146Z,30.05
2023-05-10T16:34:24.548Z,28.59
2023-05-10T16:37:26.950Z,27.98
2023-05-10T16:40:29.860Z,28.42
2023-05-10T16:43:33.283Z,28.07
2023-05-10T16:46:35.980Z,28.24
2023-05-10T16:49:38.354Z,27.72
2023-05-10T16:52:41.297Z,27.92
2023-05-10T16:55:44.726Z,28.69
2023-05-10T16:58:50.217Z,29.10
2023-05-10T17:01:53.954Z,27.38
2023-05-10T17:04:57.093Z,29.64
2023-05-10T17:07:59.683Z,29.26
2023-05-10T17:11:05.661Z,27.88
2023-05-10T17:14:08.018Z,29.36
2023-05-10T17:17:11.472Z,28.91
2023-05-10T17:20:13.962Z,28.96
2023-05-10T17:23:17.484Z,28.49
2023-05-10T17:26:19.985Z,29.60
2023-05-10T17:29:22.703Z,30.00
2023-05-10T17:32:25.554Z,28.88
2023-05-10T17:35:31.600Z,30.39
2023-05-10T17:38:34.051Z,28.80
2023-05-10T17:41:36.895Z,30.54
2023-05-10T17:44:39.349Z,29.67
2023-05-10T17:47:42.928Z,29.36
2023-05-10T17:50:45.472Z,30.81
2023-05-10T17:53:48.282Z,31.72
2023-05-10T17:56:50.631Z,31.30
2023-05-10T17:59:53.378Z,30.65
2023-05-10T18:02:56.051Z,30.85
2023-05-10T18:05:58.924Z,31.57
2023-05-10T18:09:03.174Z,31.83
2023-05-10T18:12:07.183Z,32.66
2023-05-10T18:15:10.383Z,31.46
2023-05-10T18:18:13.455Z,31.72
2023-05-10T18:21:16.360Z,33.01
2023-05-10T18:24:30.498Z,31.79
2023-05-10T18:27:43.000Z,33.40
2023-05-10T18:30:46.288Z,33.37
2023-05-10T18:33:48.883Z,34.48
2023-05-10T18:36:52.823Z,34.63
2023-05-10T18:39:55.749Z,34.44
2023-05-10T18:42:58.741Z,35.07
2023-05-10T18:46:01.664Z,35.25
2023-05-10T18:49:05.921Z,36.35
2023-05-10T18:52:08.886Z,36.40
2023-05-10T18:55:13.308Z,36.08
2023-05-10T18:58:16.750Z,36.74
2023-05-10T19:01:24.344Z,36.61
2023-05-10T19:04:28.384Z,35.78
2023-05-10T19:07:31.553Z,37.90
2023-05-10T19:10:34.437Z,37.96
2023-05-10T19:13:38.098Z,39.00
2023-05-10T19:16:43.377Z,37.69
2023-05-10T19:19:48.736Z,38.81
2023-05-10T19:23:08.178Z,39.18
2023-05-10T19:26:13.129Z,39.52
2023-05-10T19:29:16.265Z,40.23
2023-05-10T19:32:19.787Z,40.21
2023-05-10T19:35:23.790Z,38.96
2023-05-10T19:38:27.077Z,41.33
2023-05-10T19:41:30.474Z,40.67
2023-05-10T19:44:34.523Z,40.53
2023-05-10T19:47:38.128Z,40.93
2023-05-10T19:50:41.742Z,41.53
2023-05-10T19:53:46.772Z,41.40
2023-05-10T19:56:49.974Z,42.43
2023-05-10T19:59:53.121Z,42.84
2023-05-10T20:02:57.305Z,42.19
2023-05-10T20:06:00.760Z,42.82
2023-05-10T20:09:03.898Z,43.92
2023-05-10T20:12:06.442Z,43.25
2023-05-10T20:15:10.672Z,44.82
2023-05-10T20:18:14.318Z,44.00
2023-05-10T20:21:17.398Z,45.17
2023-05-10T20:24:20.404Z,45.13
2023-05-10T20:27:23.178Z,43.04
2023-05-10T20:30:25.640Z,45.66
2023-05-10T20:33:28.750Z,45.42
2023-05-10T20:36:31.771Z,45.99
2023-05-10T20:39:35.038Z,46.51
2023-05-10T20:42:37.443Z,44.58
2023-05-10T20:45:40.371Z,45.79
2023-05-10T20:48:43.008Z,47.24
2023-05-10T20:51:45.867Z,45.19
2023-05-10T20:54:48.472Z,46.47
2023-05-10T20:57:51.814Z,47.57
2023-05-10T21:00:54.734Z,47.49
2023-05-10T21:03:57.660Z,47.50
2023-05-10T21:07:00.017Z,46.23
2023-05-10T21:10:03.449Z,46.45
2023-05-10T21:13:05.982Z,46.29
2023-05-10T21:16:08.768Z,47.80
2023-05-10T21:19:11.911Z,48.80
2023-05-10T21:22:14.689Z,49.63
2023-05-10T21:25:18.221Z,50.46
2023-05-10T21:28:21.074Z,50.42
2023-05-10T21:31:23.639Z,49.90
2023-05-10T21:34:26.973Z,50.45
2023-05-10T21:37:29.368Z,50.91
2023-05-10T21:40:32.018Z,50.95
2023-05-10T21:43:34.512Z,50.23
2023-05-10T21:46:37.279Z,50.67
2023-05-10T21:49:39.967Z,50.14
2023-05-10T21:52:42.614Z,50.96
2023-05-10T21:55:45.131Z,51.39
2023-05-10T21:58:47.971Z,51.56
2023-05-10T22:01:50.650Z,52.12
2023-05-10T22:04:53.421Z,52.43
2023-05-10T22:07:57.066Z,51.43
2023-05-10T22:10:59.736Z,50.72
2023-05-10T22:14:02.144Z,51.46
2023-05-10T22:17:04.899Z,51.89
2023-05-10T22:20:08.634Z,51.49
2023-05-10T22:23:11.464Z,51.85
2023-05-10T22:26:14.073Z,52.97
2023-05-10T22:29:17.183Z,52.02
2023-05-10T22:32:19.617Z,52.00
2023-05-10T22:35:23.227Z,53.76
2023-05-10T22:38:25.865Z,53.66
2023-05-10T22:41:28.574Z,53.75
2023-05-10T22:44:30.994Z,53.20
2023-05-10T22:47:33.959Z,53.31
2023-05-10T22:50:37.330Z,54.42
2023-05-10T22:53:40.095Z,52.99
2023-05-10T22:56:42.873Z,52.58
2023-05-10T22:59:45.641Z,52.53
2023-05-10T23:02:48.107Z,53.31
2023-05-10T23:05:51.162Z,53.38
2023-05-10T23:08:53.511Z,54.22
2023-05-10T23:11:56.485Z,53.46
2023-05-10T23:14:59.090Z,54.74
2023-05-10T23:18:01.997Z,54.16
2023-05-10T23:21:04.606Z,55.02
2023-05-10T23:24:08.802Z,55.95
2023-05-10T23:27:11.633Z,56.48
2023-05-10T23:30:14.523Z,55.58
2023-05-10T23:33:17.021Z,57.07
2023-05-10T23:36:19.742Z,55.43
2023-05-10T23:39:22.343Z,56.16
2023-05-10T23:42:24.987Z,56.26
2023-05-10T23:45:28.140Z,57.18
2023-05-10T23:48:30.861Z,56.88
2023-05-10T23:51:33.176Z,55.85
2023-05-10T23:54:38.243Z,55.53
2023-05-10T23:57:40.720Z,56.76
